Ana Sayfa
METAR-TAF:

METAR-TAF

Havaalanları :

Sapporo, Japonya

Enlem: 43-07N, Boylam: 141-23E, yükseklik: 8 m

Güncel hava durumu gözlemi

Rapor saat 10:00 UTC de 1 saat ve 2 dakika önce yapıldı.
Rüzgar kuzeybatıdan 15 kt
Sıcaklık 10°C
Nem 82%
Basınç 1009 hPa
Görüş mesafesi 10 km veya daha fazla
1000 ft yükseklikte az bulutlu
1500 ft yükseklikte parçalı çok bulutlu
12000 ft yükseklikte parçalı çok bulutlu

METAR: RJCO 241000Z 31015KT 9999 FEW010 BKN015 BKN120 10/07 Q1009

Saat: 20:02 (11:02 UTC)


TAF: eksik

4.000'den fazla havaalanı için hava durumu gözlemleri ve tahminleri (METAR ve TAF raporları).

Kullanılabilir istasyonlar harita üzerinde sarı ve kırmızı noktalarla gösterilir.

İstasyonun adını görmek için fareyi noktanın üzerinde gezdirin.

Sonrasında hava gözlem ve tahminlerini görmek için tıklayın.

Haritayı değiştirmek için: yaklaştırmak için siyah artı işaretli yeşil düğmeye ve uzaklaştırmak için de eksi işaretli düğmeye hızla tıklayın; bitişik haritalar için yeşil okları kullanın.


METAR-TAF: